Terminal Aerodrome Forecast
Issued by NWS Tallahassee, FL

Home | Current Version | Previous Version | Text Only | Print | Product List | Glossary On
Versions: 1 2 3 4 5 6 7 8 9 10 11 12 13 14 15
000
FTUS42 KTAE 271137
TAFTLH
TAF
KTLH 271137Z 2712/2812 11005KT P6SM OVC150
     FM271500 35007KT P6SM SCT040
      TEMPO 2719/2723 4SM TSRA BKN040CB
     FM280000 02004KT P6SM OVC100=

USA.gov is the U.S. government's official web portal to all federal, state and local government web resources and services.